createdAt,value
2023-05-11T00:01:57.006Z,12.93
2023-05-11T00:04:23.993Z,12.57
2023-05-11T00:06:50.904Z,13.83
2023-05-11T00:09:17.695Z,14.23
2023-05-11T00:11:44.476Z,13.43
2023-05-11T00:14:11.282Z,12.80
2023-05-11T00:16:38.042Z,14.10
2023-05-11T00:19:04.905Z,14.60
2023-05-11T00:21:32.335Z,15.13
2023-05-11T00:23:59.143Z,14.67
2023-05-11T00:26:26.765Z,15.23
2023-05-11T00:28:53.561Z,14.57
2023-05-11T00:31:20.496Z,14.67
2023-05-11T00:33:47.269Z,14.07
2023-05-11T00:36:14.084Z,15.50
2023-05-11T00:38:41.384Z,14.73
2023-05-11T00:41:08.791Z,15.90
2023-05-11T00:43:35.778Z,16.47
2023-05-11T00:46:03.772Z,15.40
2023-05-11T00:48:30.838Z,15.40
2023-05-11T00:51:00.119Z,15.90
2023-05-11T00:53:27.088Z,15.63
2023-05-11T00:55:54.416Z,16.83
2023-05-11T00:58:21.527Z,16.50
2023-05-11T01:00:48.376Z,16.17
2023-05-11T01:03:16.271Z,16.77
2023-05-11T01:06:18.410Z,15.93
2023-05-11T01:08:47.666Z,16.10
2023-05-11T01:11:34.781Z,16.00
2023-05-11T01:14:12.681Z,17.17
2023-05-11T01:16:41.452Z,16.60
2023-05-11T01:19:12.994Z,17.17
2023-05-11T01:21:40.804Z,17.80
2023-05-11T01:24:46.526Z,17.30
2023-05-11T01:27:42.523Z,18.03
2023-05-11T01:30:25.095Z,16.10
2023-05-11T01:32:56.148Z,19.17
2023-05-11T01:35:26.504Z,18.03
2023-05-11T01:37:58.279Z,17.47
2023-05-11T01:40:29.130Z,17.20
2023-05-11T01:43:02.640Z,17.83
2023-05-11T01:45:33.831Z,17.40
2023-05-11T01:48:04.367Z,18.13
2023-05-11T01:50:32.763Z,17.80
2023-05-11T01:53:01.459Z,17.53
2023-05-11T01:55:31.315Z,18.97
2023-05-11T01:58:00.321Z,19.10
2023-05-11T02:00:27.369Z,17.30
2023-05-11T02:02:55.726Z,18.23
2023-05-11T02:05:25.147Z,18.83
2023-05-11T02:07:54.220Z,18.90
2023-05-11T02:10:25.287Z,20.20
2023-05-11T02:12:54.115Z,19.33
2023-05-11T02:15:22.760Z,19.40
2023-05-11T02:17:51.309Z,19.27
2023-05-11T02:20:19.719Z,18.10
2023-05-11T02:22:47.488Z,18.57
2023-05-11T02:25:15.557Z,19.73
2023-05-11T02:27:42.616Z,18.47
2023-05-11T02:30:10.154Z,18.70
2023-05-11T02:32:42.500Z,19.20
2023-05-11T02:35:18.609Z,19.73
2023-05-11T02:37:48.189Z,18.63
2023-05-11T02:40:24.410Z,18.50
2023-05-11T02:42:58.649Z,19.13
2023-05-11T02:45:31.124Z,19.03
2023-05-11T02:48:00.567Z,18.73
2023-05-11T02:50:30.487Z,18.80
2023-05-11T02:53:01.614Z,18.90
2023-05-11T02:55:29.866Z,17.90
2023-05-11T02:57:57.012Z,17.67
2023-05-11T03:00:24.106Z,18.23
2023-05-11T03:02:51.189Z,17.30
2023-05-11T03:05:18.320Z,17.53
2023-05-11T03:07:45.447Z,18.03
2023-05-11T03:10:12.393Z,17.30
2023-05-11T03:12:39.397Z,17.37
2023-05-11T03:15:07.797Z,18.10
2023-05-11T03:17:36.404Z,17.90
2023-05-11T03:20:04.382Z,16.53
2023-05-11T03:22:32.626Z,17.67
2023-05-11T03:25:00.525Z,18.33
2023-05-11T03:27:29.045Z,17.47
2023-05-11T03:29:57.511Z,17.87
2023-05-11T03:32:24.831Z,17.47
2023-05-11T03:34:52.285Z,16.83
2023-05-11T03:37:20.646Z,17.00
2023-05-11T03:39:52.402Z,16.97
2023-05-11T03:42:21.093Z,17.87
2023-05-11T03:44:49.667Z,16.23
2023-05-11T03:47:18.718Z,16.73
2023-05-11T03:49:46.230Z,16.60
2023-05-11T03:52:13.763Z,17.40
2023-05-11T03:54:42.720Z,17.53
2023-05-11T03:57:10.478Z,18.23
2023-05-11T03:59:39.847Z,17.67
2023-05-11T04:02:07.366Z,16.33
2023-05-11T04:04:34.622Z,16.63
2023-05-11T04:07:01.642Z,16.87
2023-05-11T04:09:28.440Z,17.07
2023-05-11T04:11:55.222Z,17.97
2023-05-11T04:14:21.954Z,17.33
2023-05-11T04:16:48.722Z,17.43
2023-05-11T04:19:16.603Z,17.37
2023-05-11T04:21:43.447Z,17.67
2023-05-11T04:24:10.232Z,16.73
2023-05-11T04:26:37.037Z,16.63
2023-05-11T04:29:03.964Z,17.10
2023-05-11T04:31:31.027Z,16.97
2023-05-11T04:33:57.852Z,18.13
2023-05-11T04:36:25.028Z,17.10
2023-05-11T04:38:53.344Z,17.17
2023-05-11T04:41:20.796Z,17.43
2023-05-11T04:43:47.626Z,17.70
2023-05-11T04:46:14.510Z,18.83
2023-05-11T04:48:41.843Z,17.80
2023-05-11T04:51:08.675Z,17.53
2023-05-11T04:53:35.446Z,19.07
2023-05-11T04:56:02.233Z,19.17
2023-05-11T04:58:29.116Z,19.73
2023-05-11T05:00:55.892Z,18.43
2023-05-11T05:03:22.792Z,18.40
2023-05-11T05:05:49.648Z,17.70
2023-05-11T05:08:17.704Z,18.83
2023-05-11T05:10:44.551Z,18.63
2023-05-11T05:13:11.453Z,17.63
2023-05-11T05:15:38.300Z,18.83
2023-05-11T05:18:05.210Z,17.83
2023-05-11T05:20:32.072Z,19.23
2023-05-11T05:22:59.071Z,18.53
2023-05-11T05:25:25.827Z,19.43
2023-05-11T05:27:52.538Z,20.23
2023-05-11T05:30:19.752Z,19.80
2023-05-11T05:32:46.894Z,20.37
2023-05-11T05:35:13.739Z,20.03
2023-05-11T05:37:40.596Z,21.00
2023-05-11T05:40:08.019Z,20.70
2023-05-11T05:42:34.829Z,20.83
2023-05-11T05:45:01.631Z,21.80
2023-05-11T05:47:28.422Z,21.87
2023-05-11T05:49:55.304Z,20.70
2023-05-11T05:52:22.090Z,22.17
2023-05-11T05:54:48.940Z,22.57
2023-05-11T05:57:15.985Z,23.77
2023-05-11T05:59:42.896Z,23.17
2023-05-11T06:02:09.860Z,25.70
2023-05-11T06:04:36.823Z,25.97
2023-05-11T06:07:03.716Z,23.40
2023-05-11T06:09:30.464Z,24.53
2023-05-11T06:11:57.409Z,25.70
2023-05-11T06:14:24.167Z,25.60
2023-05-11T06:16:51.275Z,24.57
2023-05-11T06:19:18.145Z,26.07
2023-05-11T06:21:46.153Z,28.03
2023-05-11T06:24:12.974Z,27.33
2023-05-11T06:26:40.951Z,27.27
2023-05-11T06:29:08.157Z,28.67
2023-05-11T06:31:35.008Z,27.73
2023-05-11T06:34:01.825Z,28.57
2023-05-11T06:36:28.808Z,28.13
2023-05-11T06:38:56.304Z,28.17
2023-05-11T06:41:23.213Z,27.77
2023-05-11T06:43:50.065Z,28.33
2023-05-11T06:46:17.994Z,28.67
2023-05-11T06:48:44.987Z,29.97
2023-05-11T06:51:12.559Z,29.47
2023-05-11T06:53:39.547Z,28.43
2023-05-11T06:56:07.200Z,27.90
2023-05-11T06:58:34.068Z,28.30
2023-05-11T07:01:02.161Z,28.80
2023-05-11T07:03:29.138Z,28.70
2023-05-11T07:05:56.022Z,29.70
2023-05-11T07:08:22.768Z,30.60
2023-05-11T07:10:49.622Z,31.07
2023-05-11T07:13:16.434Z,28.67
2023-05-11T07:15:43.178Z,28.70
2023-05-11T07:18:10.006Z,28.27
2023-05-11T07:20:37.151Z,27.73
2023-05-11T07:23:03.911Z,27.53
2023-05-11T07:25:30.752Z,28.83
2023-05-11T07:27:57.520Z,27.77
2023-05-11T07:30:25.057Z,27.93
2023-05-11T07:32:52.056Z,26.97
2023-05-11T07:35:18.977Z,27.93
2023-05-11T07:37:45.701Z,27.67
2023-05-11T07:40:12.688Z,27.30
2023-05-11T07:42:39.651Z,27.07
2023-05-11T07:45:07.180Z,28.00
2023-05-11T07:47:36.761Z,27.07
2023-05-11T07:50:04.209Z,27.40
2023-05-11T07:52:31.098Z,33.90
2023-05-11T07:54:58.109Z,29.60
2023-05-11T07:57:24.918Z,27.37
2023-05-11T07:59:51.727Z,27.73
2023-05-11T08:02:19.175Z,29.30
2023-05-11T08:04:46.417Z,28.53
2023-05-11T08:07:13.246Z,27.70
2023-05-11T08:09:40.012Z,27.73
2023-05-11T08:12:07.232Z,28.50
2023-05-11T08:14:34.000Z,27.53
2023-05-11T08:17:00.960Z,28.53
2023-05-11T08:19:27.740Z,28.87
2023-05-11T08:21:54.638Z,27.63
2023-05-11T08:24:21.454Z,27.97
2023-05-11T08:26:48.531Z,27.13
2023-05-11T08:29:15.369Z,26.37
2023-05-11T08:31:42.191Z,25.73
2023-05-11T08:34:18.467Z,25.57
2023-05-11T08:36:46.927Z,23.03
2023-05-11T08:39:13.762Z,23.50
2023-05-11T08:41:40.526Z,22.60
2023-05-11T08:44:08.169Z,22.10
2023-05-11T08:46:36.371Z,23.63
2023-05-11T08:49:03.631Z,24.07
2023-05-11T08:51:30.682Z,24.40
2023-05-11T08:53:59.287Z,24.90
2023-05-11T08:56:30.516Z,22.17
2023-05-11T08:58:58.113Z,23.30
2023-05-11T09:01:28.677Z,21.93
2023-05-11T09:03:56.968Z,23.30
2023-05-11T09:06:26.708Z,22.60
2023-05-11T09:08:54.397Z,22.53
2023-05-11T09:11:22.920Z,23.33
2023-05-11T09:13:50.362Z,23.10
2023-05-11T09:16:35.773Z,22.47
2023-05-11T09:19:04.468Z,22.33
2023-05-11T09:21:32.011Z,22.53
2023-05-11T09:24:02.076Z,20.67
2023-05-11T09:26:29.930Z,21.03
2023-05-11T09:31:45.487Z,20.40
2023-05-11T09:34:20.941Z,19.67
2023-05-11T09:36:53.184Z,20.60
2023-05-11T09:39:42.242Z,20.37
2023-05-11T09:42:21.886Z,19.93
2023-05-11T09:44:48.971Z,22.30
2023-05-11T09:47:22.294Z,22.73
2023-05-11T09:49:49.281Z,21.93
2023-05-11T09:52:18.177Z,21.00
2023-05-11T09:54:47.864Z,20.70
2023-05-11T09:57:31.256Z,21.43
2023-05-11T09:59:59.976Z,22.37
2023-05-11T10:02:28.871Z,21.47
2023-05-11T10:04:58.086Z,21.57
2023-05-11T10:07:26.097Z,22.07
2023-05-11T10:09:55.662Z,20.70
2023-05-11T10:12:24.170Z,21.63
2023-05-11T10:14:54.392Z,21.53
2023-05-11T10:17:21.724Z,20.53
2023-05-11T10:19:49.720Z,22.00
2023-05-11T10:22:19.796Z,21.17
2023-05-11T10:24:47.419Z,21.07
2023-05-11T10:27:14.926Z,21.27
2023-05-11T10:29:43.604Z,21.00
2023-05-11T10:32:11.913Z,20.53
2023-05-11T10:34:41.881Z,22.90
2023-05-11T10:37:09.391Z,22.13
2023-05-11T10:39:46.090Z,20.33
2023-05-11T10:42:38.225Z,21.07
2023-05-11T10:45:35.891Z,19.57
2023-05-11T10:48:32.929Z,19.67
2023-05-11T10:51:27.257Z,19.20
2023-05-11T10:54:27.616Z,19.80
2023-05-11T10:57:04.865Z,20.80
2023-05-11T11:00:09.421Z,19.90
2023-05-11T11:02:37.647Z,20.30
2023-05-11T11:05:07.827Z,18.03
2023-05-11T11:07:57.782Z,19.47
2023-05-11T11:10:39.373Z,19.53
2023-05-11T11:13:08.796Z,19.20
2023-05-11T11:15:54.384Z,18.97
2023-05-11T11:18:26.638Z,18.30
2023-05-11T11:20:56.043Z,17.90
2023-05-11T11:23:45.390Z,17.47
2023-05-11T11:26:17.237Z,17.73
2023-05-11T11:29:00.759Z,18.27
2023-05-11T11:31:34.586Z,18.17
2023-05-11T11:34:27.772Z,17.60
2023-05-11T11:37:03.906Z,17.13
2023-05-11T11:39:42.890Z,17.27
2023-05-11T11:42:25.806Z,18.80
2023-05-11T11:44:52.607Z,17.27
2023-05-11T11:47:20.790Z,16.60
2023-05-11T11:49:53.412Z,16.60
2023-05-11T11:52:29.385Z,15.33
2023-05-11T11:54:59.866Z,16.10
2023-05-11T11:57:32.916Z,15.37
2023-05-11T12:00:11.877Z,14.87
2023-05-11T12:02:43.260Z,15.70
2023-05-11T12:05:23.450Z,15.37
2023-05-11T12:07:52.227Z,15.10
2023-05-11T12:10:23.139Z,15.70
2023-05-11T12:12:54.907Z,15.67
2023-05-11T12:15:30.036Z,15.73
2023-05-11T12:17:57.325Z,14.13
2023-05-11T12:20:25.411Z,15.37
2023-05-11T12:22:52.259Z,15.03
2023-05-11T12:25:20.730Z,14.27
2023-05-11T12:27:58.279Z,14.63
2023-05-11T12:30:26.926Z,13.30
2023-05-11T12:32:57.368Z,13.13
2023-05-11T12:35:29.911Z,14.43
2023-05-11T12:37:58.010Z,12.57
2023-05-11T12:40:24.927Z,12.87
2023-05-11T12:42:53.775Z,12.07
2023-05-11T12:45:22.637Z,12.90
2023-05-11T12:47:51.171Z,11.97
2023-05-11T12:50:18.712Z,11.83
2023-05-11T12:52:45.876Z,10.90
2023-05-11T12:55:12.825Z,11.30
2023-05-11T12:57:40.664Z,10.87
2023-05-11T13:00:10.106Z,10.53
2023-05-11T13:02:44.978Z,11.27
2023-05-11T13:05:14.007Z,10.47
2023-05-11T13:07:41.311Z,10.57
2023-05-11T13:10:08.524Z,8.83
2023-05-11T13:12:47.265Z,9.77
2023-05-11T13:15:14.028Z,7.70
2023-05-11T13:17:42.690Z,8.13
2023-05-11T13:20:19.592Z,8.43
2023-05-11T13:22:48.339Z,8.57
2023-05-11T13:25:17.197Z,9.13
2023-05-11T13:27:44.560Z,9.23
2023-05-11T13:30:11.967Z,8.83
2023-05-11T13:32:39.731Z,8.80
2023-05-11T13:35:07.220Z,8.90
2023-05-11T13:37:34.051Z,7.60
2023-05-11T13:40:00.972Z,9.30
2023-05-11T13:42:29.047Z,10.17
2023-05-11T13:44:56.223Z,9.87
2023-05-11T13:47:23.193Z,10.43
2023-05-11T13:49:50.236Z,10.07
2023-05-11T13:52:17.047Z,9.67
2023-05-11T13:54:43.809Z,9.37
2023-05-11T13:57:10.844Z,9.93
2023-05-11T13:59:37.775Z,11.77
2023-05-11T14:02:04.755Z,10.27
2023-05-11T14:04:31.948Z,11.83
2023-05-11T14:06:59.740Z,8.47
2023-05-11T14:09:26.730Z,8.03
2023-05-11T14:11:53.638Z,7.73
2023-05-11T14:14:20.659Z,7.67
2023-05-11T14:16:47.570Z,7.47
2023-05-11T14:19:15.374Z,7.60
2023-05-11T14:21:42.469Z,8.00
2023-05-11T14:24:12.542Z,8.20
2023-05-11T14:26:40.238Z,8.27
2023-05-11T14:29:07.141Z,9.10
2023-05-11T14:31:35.869Z,9.00
2023-05-11T14:34:04.230Z,8.50
2023-05-11T14:36:32.060Z,8.47
2023-05-11T14:38:58.828Z,7.50
2023-05-11T14:41:25.950Z,8.23
2023-05-11T14:43:52.820Z,8.20
2023-05-11T14:46:19.779Z,8.33
2023-05-11T14:48:46.837Z,8.87
2023-05-11T14:51:13.948Z,8.17
2023-05-11T14:53:40.880Z,8.90
2023-05-11T14:56:07.856Z,8.47
2023-05-11T14:58:35.049Z,7.83
2023-05-11T15:01:02.048Z,7.37
2023-05-11T15:03:29.157Z,8.90
2023-05-11T15:05:56.037Z,8.17
2023-05-11T15:08:29.671Z,7.67
2023-05-11T15:10:57.452Z,7.47
2023-05-11T15:13:24.436Z,6.40
2023-05-11T15:15:51.776Z,7.10
2023-05-11T15:18:19.178Z,7.60
2023-05-11T15:20:46.824Z,6.83
2023-05-11T15:23:17.116Z,5.80
2023-05-11T15:25:44.851Z,5.97
2023-05-11T15:28:12.310Z,6.10
2023-05-11T15:30:41.407Z,6.47
2023-05-11T15:33:10.297Z,6.27
2023-05-11T15:35:37.993Z,5.63
2023-05-11T15:38:05.568Z,6.37
2023-05-11T15:40:33.019Z,5.67
2023-05-11T15:43:00.605Z,5.80
2023-05-11T15:45:28.078Z,5.13
2023-05-11T15:47:55.569Z,5.07
2023-05-11T15:50:22.836Z,4.27
2023-05-11T15:52:49.719Z,4.97
2023-05-11T15:55:16.700Z,4.47
2023-05-11T15:57:43.605Z,3.97
2023-05-11T16:00:11.548Z,3.70
2023-05-11T16:02:38.742Z,4.37
2023-05-11T16:05:06.362Z,3.70
2023-05-11T16:07:33.267Z,4.03
2023-05-11T16:10:00.169Z,3.90
2023-05-11T16:12:27.193Z,4.20
2023-05-11T16:14:54.024Z,4.07
2023-05-11T16:17:20.947Z,5.10
2023-05-11T16:19:47.918Z,4.47
2023-05-11T16:22:14.730Z,5.17
2023-05-11T16:24:41.562Z,5.77
2023-05-11T16:27:08.341Z,5.00
2023-05-11T16:29:35.411Z,5.17
2023-05-11T16:32:02.361Z,5.93
2023-05-11T16:34:29.239Z,5.87
2023-05-11T16:36:58.582Z,5.50
2023-05-11T16:39:26.773Z,5.37
2023-05-11T16:41:53.662Z,5.47
2023-05-11T16:44:20.458Z,5.40
2023-05-11T16:46:48.318Z,5.20
2023-05-11T16:49:15.231Z,5.00
2023-05-11T16:51:43.386Z,4.57
2023-05-11T16:54:10.603Z,4.97
2023-05-11T16:56:37.638Z,4.73
2023-05-11T16:59:04.522Z,4.57
2023-05-11T17:01:32.615Z,4.83
2023-05-11T17:03:59.517Z,4.90
2023-05-11T17:06:27.565Z,4.50
2023-05-11T17:08:54.760Z,5.47
2023-05-11T17:11:21.752Z,4.33
2023-05-11T17:13:48.647Z,5.30
2023-05-11T17:16:15.587Z,5.23
2023-05-11T17:18:42.797Z,5.07
2023-05-11T17:21:10.510Z,4.20
2023-05-11T17:23:37.450Z,5.37
2023-05-11T17:26:10.195Z,5.53
2023-05-11T17:28:38.034Z,5.20
2023-05-11T17:31:13.035Z,4.67
2023-05-11T17:33:41.154Z,5.97
2023-05-11T17:36:09.639Z,6.03
2023-05-11T17:38:36.888Z,5.90
2023-05-11T17:41:07.091Z,5.93
2023-05-11T17:43:35.428Z,6.00
2023-05-11T17:46:05.381Z,6.63
2023-05-11T17:48:32.578Z,6.70
2023-05-11T17:50:59.442Z,6.13
2023-05-11T17:53:27.255Z,6.10
2023-05-11T17:55:54.335Z,7.10
2023-05-11T17:58:21.229Z,6.97
2023-05-11T18:00:49.182Z,6.03
2023-05-11T18:03:17.036Z,6.97
2023-05-11T18:08:14.327Z,7.23
2023-05-11T18:10:41.176Z,7.27
2023-05-11T18:13:08.904Z,7.40
2023-05-11T18:15:35.730Z,7.90
2023-05-11T18:18:02.617Z,7.60
2023-05-11T18:20:29.497Z,7.80
2023-05-11T18:22:56.903Z,8.10
2023-05-11T18:25:24.728Z,7.20
2023-05-11T18:27:51.654Z,7.87
2023-05-11T18:30:18.815Z,7.87
2023-05-11T18:32:45.883Z,7.67
2023-05-11T18:35:12.696Z,7.23
2023-05-11T18:37:39.553Z,7.23
2023-05-11T18:40:07.692Z,7.97
2023-05-11T18:42:34.724Z,7.67
2023-05-11T18:45:01.877Z,7.57
2023-05-11T18:47:28.840Z,5.03
2023-05-11T18:49:57.280Z,3.90
2023-05-11T18:52:24.054Z,3.07
2023-05-11T18:54:50.867Z,3.10
2023-05-11T18:57:20.235Z,2.90
2023-05-11T18:59:51.569Z,3.03
2023-05-11T19:02:18.421Z,2.50
2023-05-11T19:04:45.273Z,2.20
2023-05-11T19:07:12.094Z,2.40
2023-05-11T19:09:38.885Z,2.33
2023-05-11T19:12:05.931Z,1.90
2023-05-11T19:14:35.007Z,2.00
2023-05-11T19:17:02.621Z,2.40
2023-05-11T19:19:29.556Z,2.30
2023-05-11T19:21:56.491Z,2.07
2023-05-11T19:24:23.263Z,2.23
2023-05-11T19:27:02.563Z,2.30
2023-05-11T19:29:33.269Z,2.60
2023-05-11T19:32:00.269Z,2.47
2023-05-11T19:34:27.314Z,2.50
2023-05-11T19:36:54.119Z,3.63
2023-05-11T19:39:20.987Z,3.90
2023-05-11T19:41:47.804Z,3.00
2023-05-11T19:44:14.632Z,7.60
2023-05-11T19:46:46.370Z,3.20
2023-05-11T19:49:17.460Z,3.40
2023-05-11T19:51:44.336Z,3.10
2023-05-11T19:54:11.565Z,3.10
2023-05-11T19:56:39.336Z,3.17
2023-05-11T19:59:06.188Z,3.40
2023-05-11T20:01:33.097Z,3.17
2023-05-11T20:04:00.103Z,3.70
2023-05-11T20:06:27.059Z,3.10
2023-05-11T20:08:54.369Z,3.83
2023-05-11T20:11:22.233Z,3.27
2023-05-11T20:13:49.360Z,3.50
2023-05-11T20:16:16.397Z,3.30
2023-05-11T20:18:43.554Z,3.90
2023-05-11T20:21:10.575Z,4.50
2023-05-11T20:23:39.329Z,3.80
2023-05-11T20:26:06.566Z,4.20
2023-05-11T20:28:33.447Z,3.87
2023-05-11T20:31:00.340Z,5.53
2023-05-11T20:35:57.044Z,4.50
2023-05-11T20:38:23.973Z,4.27
2023-05-11T20:40:55.505Z,4.70
2023-05-11T20:43:22.256Z,4.90
2023-05-11T20:45:49.108Z,5.23
2023-05-11T20:50:50.073Z,5.50
2023-05-11T20:53:16.914Z,5.60
2023-05-11T20:55:43.702Z,5.13
2023-05-11T20:58:11.042Z,6.30
2023-05-11T21:00:39.420Z,6.10
2023-05-11T21:03:07.506Z,6.17
2023-05-11T21:05:35.132Z,5.53
2023-05-11T21:08:01.899Z,6.33
2023-05-11T21:10:28.760Z,6.20
2023-05-11T21:12:55.801Z,6.93
2023-05-11T21:15:22.648Z,6.23
2023-05-11T21:17:49.513Z,6.73
2023-05-11T21:20:16.459Z,6.87
2023-05-11T21:22:43.439Z,6.03
2023-05-11T21:25:10.274Z,6.80
2023-05-11T21:27:37.044Z,7.37
2023-05-11T21:30:04.662Z,6.07
2023-05-11T21:32:31.490Z,6.83
2023-05-11T21:34:58.333Z,6.97
2023-05-11T21:37:25.130Z,6.73
2023-05-11T21:39:52.492Z,7.10
2023-05-11T21:42:19.365Z,6.97
2023-05-11T21:44:46.162Z,7.17
2023-05-11T21:47:12.951Z,7.47
2023-05-11T21:49:39.777Z,7.27
2023-05-11T21:52:06.810Z,7.83
2023-05-11T21:54:34.077Z,7.73
2023-05-11T21:57:00.952Z,7.23
2023-05-11T21:59:27.722Z,7.97
2023-05-11T22:01:57.177Z,7.03
2023-05-11T22:04:24.337Z,7.60
2023-05-11T22:06:51.193Z,7.40
2023-05-11T22:09:18.196Z,7.47
2023-05-11T22:11:45.015Z,6.83
2023-05-11T22:14:11.785Z,7.10
2023-05-11T22:16:38.652Z,6.77
2023-05-11T22:19:06.079Z,7.43
2023-05-11T22:21:32.852Z,7.60
2023-05-11T22:23:59.672Z,7.33
2023-05-11T22:26:26.906Z,7.83
2023-05-11T22:28:53.737Z,7.73
2023-05-11T22:31:20.653Z,7.30
2023-05-11T22:33:47.435Z,6.97
2023-05-11T22:36:14.203Z,7.23
2023-05-11T22:38:44.137Z,7.70
2023-05-11T22:41:10.994Z,7.43
2023-05-11T22:43:37.773Z,7.00
2023-05-11T22:46:05.036Z,7.20
2023-05-11T22:48:32.016Z,6.87
2023-05-11T22:50:58.903Z,8.00
2023-05-11T22:53:26.118Z,6.83
2023-05-11T22:55:52.927Z,7.33
2023-05-11T22:58:19.954Z,7.30
2023-05-11T23:00:47.010Z,7.77
2023-05-11T23:03:14.059Z,7.03
2023-05-11T23:05:41.065Z,8.07
2023-05-11T23:08:07.972Z,7.53
2023-05-11T23:10:34.792Z,6.97
2023-05-11T23:13:01.664Z,7.77
2023-05-11T23:15:28.596Z,7.50
2023-05-11T23:17:55.628Z,7.40
2023-05-11T23:20:22.900Z,7.53
2023-05-11T23:22:49.699Z,6.90
2023-05-11T23:25:16.569Z,6.60
2023-05-11T23:27:43.373Z,4.87
2023-05-11T23:30:10.528Z,4.33
2023-05-11T23:32:37.480Z,3.80
2023-05-11T23:35:04.731Z,3.97
2023-05-11T23:37:31.592Z,3.47
2023-05-11T23:39:58.394Z,3.77
2023-05-11T23:42:25.201Z,3.83
2023-05-11T23:44:51.986Z,3.47
2023-05-11T23:47:19.009Z,3.60
2023-05-11T23:49:45.917Z,3.97
2023-05-11T23:52:12.784Z,4.07
2023-05-11T23:54:39.636Z,4.30
2023-05-11T23:57:06.568Z,4.27
2023-05-11T23:59:33.418Z,4.97
